createdAt,value
2023-05-09T00:01:47.434Z,99163.09
2023-05-09T00:04:16.750Z,99165.84
2023-05-09T00:06:46.092Z,99171.03
2023-05-09T00:09:15.311Z,99166.66
2023-05-09T00:11:44.526Z,99163.53
2023-05-09T00:14:14.008Z,99166.41
2023-05-09T00:16:43.104Z,99165.06
2023-05-09T00:19:13.182Z,99159.69
2023-05-09T00:21:42.282Z,99153.97
2023-05-09T00:24:11.375Z,99161.38
2023-05-09T00:26:40.573Z,99159.75
2023-05-09T00:29:09.653Z,99157.59
2023-05-09T00:31:38.727Z,99157.09
2023-05-09T00:34:07.864Z,99164.19
2023-05-09T00:36:37.185Z,99156.22
2023-05-09T00:39:06.307Z,99154.72
2023-05-09T00:41:35.835Z,99158.28
2023-05-09T00:44:05.073Z,99158.94
2023-05-09T00:46:34.222Z,99150.50
2023-05-09T00:49:03.765Z,99156.00
2023-05-09T00:51:33.254Z,99151.91
2023-05-09T00:54:02.697Z,99150.13
2023-05-09T00:56:31.889Z,99150.44
2023-05-09T00:59:01.172Z,99153.97
2023-05-09T01:01:30.878Z,99147.16
2023-05-09T01:04:00.202Z,99145.03
2023-05-09T01:06:38.068Z,99154.28
2023-05-09T01:09:26.822Z,99154.22
2023-05-09T01:12:08.060Z,99155.44
2023-05-09T01:14:59.935Z,99155.59
2023-05-09T01:17:40.294Z,99158.63
2023-05-09T01:20:24.582Z,99160.00
2023-05-09T01:23:15.995Z,99156.03
2023-05-09T01:26:04.500Z,99159.34
2023-05-09T01:29:10.660Z,99157.03
2023-05-09T01:31:42.166Z,99148.44
2023-05-09T01:34:15.042Z,99150.88
2023-05-09T01:36:44.425Z,99151.84
2023-05-09T01:39:14.026Z,99151.63
2023-05-09T01:41:43.154Z,99148.34
2023-05-09T01:44:15.095Z,99152.84
2023-05-09T01:46:44.989Z,99146.34
2023-05-09T01:49:14.520Z,99141.88
2023-05-09T01:51:45.236Z,99145.72
2023-05-09T01:54:16.897Z,99149.53
2023-05-09T01:56:47.139Z,99157.28
2023-05-09T01:59:18.508Z,99149.44
2023-05-09T02:01:48.919Z,99147.41
2023-05-09T02:04:18.925Z,99156.53
2023-05-09T02:06:51.455Z,99151.91
2023-05-09T02:09:21.138Z,99156.13
2023-05-09T02:11:50.457Z,99155.75
2023-05-09T02:14:19.574Z,99164.75
2023-05-09T02:16:48.648Z,99168.97
2023-05-09T02:19:17.695Z,99150.16
2023-05-09T02:21:46.854Z,99158.91
2023-05-09T02:24:16.086Z,99157.28
2023-05-09T02:26:45.621Z,99154.41
2023-05-09T02:29:18.620Z,99163.28
2023-05-09T02:31:50.144Z,99156.75
2023-05-09T02:34:20.178Z,99154.72
2023-05-09T02:36:49.550Z,99146.94
2023-05-09T02:39:18.652Z,99146.41
2023-05-09T02:41:50.662Z,99148.41
2023-05-09T02:44:21.040Z,99155.41
2023-05-09T02:46:50.472Z,99153.22
2023-05-09T02:49:31.475Z,99147.94
2023-05-09T02:52:02.356Z,99150.25
2023-05-09T02:54:31.480Z,99155.13
2023-05-09T02:57:00.646Z,99153.59
2023-05-09T02:59:30.862Z,99157.69
2023-05-09T03:02:03.593Z,99155.09
2023-05-09T03:04:33.739Z,99154.84
2023-05-09T03:07:03.634Z,99156.38
2023-05-09T03:09:35.543Z,99160.03
2023-05-09T03:12:05.003Z,99161.81
2023-05-09T03:14:34.188Z,99166.97
2023-05-09T03:17:04.479Z,99163.59
2023-05-09T03:19:37.209Z,99164.41
2023-05-09T03:22:07.323Z,99170.94
2023-05-09T03:24:41.372Z,99169.44
2023-05-09T03:27:10.461Z,99172.72
2023-05-09T03:29:39.518Z,99166.19
2023-05-09T03:32:08.570Z,99168.13
2023-05-09T03:34:37.799Z,99165.38
2023-05-09T03:37:07.450Z,99166.31
2023-05-09T03:39:40.770Z,99164.50
2023-05-09T03:42:09.983Z,99165.56
2023-05-09T03:44:39.107Z,99159.19
2023-05-09T03:47:08.174Z,99165.41
2023-05-09T03:49:41.615Z,99159.56
2023-05-09T03:52:12.354Z,99172.59
2023-05-09T03:54:41.512Z,99172.34
2023-05-09T03:57:10.675Z,99164.94
2023-05-09T03:59:40.673Z,99174.63
2023-05-09T04:02:11.136Z,99173.91
2023-05-09T04:04:40.514Z,99172.50
2023-05-09T04:07:10.732Z,99174.25
2023-05-09T04:09:42.341Z,99167.53
2023-05-09T04:12:11.498Z,99164.59
2023-05-09T04:14:40.665Z,99168.47
2023-05-09T04:17:10.228Z,99166.50
2023-05-09T04:19:39.325Z,99164.13
2023-05-09T04:22:08.326Z,99172.78
2023-05-09T04:24:37.369Z,99167.41
2023-05-09T04:27:06.500Z,99159.69
2023-05-09T04:32:35.870Z,99162.47
2023-05-09T04:35:06.590Z,99164.69
2023-05-09T04:37:41.825Z,99167.06
2023-05-09T04:40:11.852Z,99170.22
2023-05-09T04:42:46.931Z,99161.19
2023-05-09T04:45:16.430Z,99164.66
2023-05-09T04:47:45.869Z,99166.19
2023-05-09T04:50:16.609Z,99175.50
2023-05-09T04:52:45.784Z,99172.63
2023-05-09T04:55:15.297Z,99179.81
2023-05-09T04:57:49.108Z,99170.59
2023-05-09T05:00:19.410Z,99166.09
2023-05-09T05:02:50.096Z,99172.47
2023-05-09T05:05:25.021Z,99167.94
2023-05-09T05:07:55.570Z,99161.75
2023-05-09T05:10:30.415Z,99168.13
2023-05-09T05:13:07.955Z,99157.59
2023-05-09T05:15:41.248Z,99164.25
2023-05-09T05:18:11.488Z,99166.50
2023-05-09T05:20:42.098Z,99168.47
2023-05-09T05:23:11.204Z,99165.50
2023-05-09T05:25:40.548Z,99162.91
2023-05-09T05:28:09.786Z,99161.63
2023-05-09T05:30:43.182Z,99161.09
2023-05-09T05:33:12.287Z,99156.34
2023-05-09T05:35:41.433Z,99164.47
2023-05-09T05:38:10.656Z,99162.00
2023-05-09T05:40:40.273Z,99168.28
2023-05-09T05:43:10.279Z,99165.31
2023-05-09T05:45:41.076Z,99168.38
2023-05-09T05:48:13.155Z,99159.69
2023-05-09T05:50:42.259Z,99152.47
2023-05-09T05:53:12.439Z,99152.03
2023-05-09T05:55:41.766Z,99149.38
2023-05-09T05:58:10.892Z,99148.50
2023-05-09T06:00:40.262Z,99150.53
2023-05-09T06:03:14.225Z,99142.31
2023-05-09T06:05:49.136Z,99142.16
2023-05-09T06:08:18.731Z,99133.44
2023-05-09T06:10:47.809Z,99140.38
2023-05-09T06:13:17.001Z,99132.97
2023-05-09T06:15:50.916Z,99131.09
2023-05-09T06:18:20.111Z,99125.50
2023-05-09T06:20:49.295Z,99128.94
2023-05-09T06:23:22.176Z,99132.06
2023-05-09T06:25:51.270Z,99136.19
2023-05-09T06:28:20.368Z,99133.88
2023-05-09T06:30:49.526Z,99127.00
2023-05-09T06:33:18.585Z,99126.06
2023-05-09T06:35:48.548Z,99131.66
2023-05-09T06:38:17.579Z,99125.94
2023-05-09T06:40:46.727Z,99127.88
2023-05-09T06:43:15.868Z,99116.28
2023-05-09T06:45:45.012Z,99122.28
2023-05-09T06:48:14.081Z,99112.94
2023-05-09T06:50:43.130Z,99114.91
2023-05-09T06:53:12.276Z,99111.91
2023-05-09T06:55:41.938Z,99109.59
2023-05-09T06:58:12.087Z,99110.88
2023-05-09T07:00:41.288Z,99101.47
2023-05-09T07:03:10.813Z,99102.38
2023-05-09T07:05:39.885Z,99098.41
2023-05-09T07:08:09.077Z,99103.50
2023-05-09T07:10:38.869Z,99097.47
2023-05-09T07:13:07.921Z,99092.88
2023-05-09T07:15:41.118Z,99076.16
2023-05-09T07:18:11.954Z,99088.72
2023-05-09T07:20:41.296Z,99079.28
2023-05-09T07:23:10.386Z,99082.19
2023-05-09T07:25:39.431Z,99070.69
2023-05-09T07:28:08.562Z,99068.06
2023-05-09T07:30:37.645Z,99066.84
2023-05-09T07:33:07.693Z,99068.28
2023-05-09T07:35:36.902Z,99067.88
2023-05-09T07:38:06.506Z,99051.09
2023-05-09T07:40:37.212Z,99060.38
2023-05-09T07:43:06.333Z,99050.66
2023-05-09T07:45:35.463Z,99044.56
2023-05-09T07:48:05.056Z,99038.31
2023-05-09T07:50:34.152Z,99043.09
2023-05-09T07:53:03.258Z,99039.88
2023-05-09T07:55:32.323Z,99040.84
2023-05-09T07:58:01.402Z,99033.78
2023-05-09T08:00:30.471Z,99024.06
2023-05-09T08:02:59.894Z,99028.91
2023-05-09T08:05:29.199Z,99026.47
2023-05-09T08:07:58.307Z,99018.75
2023-05-09T08:10:30.666Z,99014.84
2023-05-09T08:12:59.866Z,99017.84
2023-05-09T08:15:28.998Z,99013.31
2023-05-09T08:17:58.263Z,99002.66
2023-05-09T08:20:27.409Z,99002.50
2023-05-09T08:22:56.457Z,99004.06
2023-05-09T08:25:25.488Z,99002.19
2023-05-09T08:27:54.528Z,99002.13
2023-05-09T08:30:23.554Z,99003.59
2023-05-09T08:32:52.680Z,99002.91
2023-05-09T08:35:21.888Z,99000.22
2023-05-09T08:37:51.728Z,98998.53
2023-05-09T08:40:21.120Z,98990.13
2023-05-09T08:42:50.875Z,98995.19
2023-05-09T08:45:25.978Z,99003.97
2023-05-09T08:47:55.819Z,98998.03
2023-05-09T08:50:25.284Z,98996.06
2023-05-09T08:52:54.523Z,98992.34
2023-05-09T08:55:25.395Z,99002.97
2023-05-09T08:57:54.716Z,98994.59
2023-05-09T09:00:25.448Z,98991.38
2023-05-09T09:02:57.108Z,98978.81
2023-05-09T09:05:40.802Z,98980.25
2023-05-09T09:08:11.940Z,98971.84
2023-05-09T09:10:47.083Z,98978.97
2023-05-09T09:13:18.065Z,98978.50
2023-05-09T09:15:48.982Z,98972.00
2023-05-09T09:18:23.770Z,98965.47
2023-05-09T09:21:00.139Z,98966.81
2023-05-09T09:23:30.463Z,98969.19
2023-05-09T09:26:01.833Z,98962.44
2023-05-09T09:28:31.073Z,98967.09
2023-05-09T09:31:00.483Z,98968.50
2023-05-09T09:33:29.664Z,98964.34
2023-05-09T09:35:59.818Z,98965.31
2023-05-09T09:38:30.953Z,98955.69
2023-05-09T09:41:00.146Z,98955.38
2023-05-09T09:43:30.962Z,98960.66
2023-05-09T09:46:04.466Z,98962.09
2023-05-09T09:48:35.671Z,98965.19
2023-05-09T09:51:10.746Z,98954.09
2023-05-09T09:53:43.563Z,98947.50
2023-05-09T09:56:13.047Z,98953.91
2023-05-09T09:58:42.104Z,98948.81
2023-05-09T10:01:14.172Z,98952.31
2023-05-09T10:03:48.175Z,98952.69
2023-05-09T10:06:17.490Z,98947.50
2023-05-09T10:08:47.378Z,98948.06
2023-05-09T10:11:16.616Z,98951.00
2023-05-09T10:13:46.448Z,98945.03
2023-05-09T10:16:16.050Z,98946.69
2023-05-09T10:18:45.592Z,98939.47
2023-05-09T10:21:15.910Z,98940.34
2023-05-09T10:23:47.952Z,98935.28
2023-05-09T10:26:27.127Z,98934.81
2023-05-09T10:28:57.914Z,98939.63
2023-05-09T10:31:28.932Z,98928.78
2023-05-09T10:34:02.078Z,98933.63
2023-05-09T10:36:31.453Z,98920.97
2023-05-09T10:39:01.422Z,98933.25
2023-05-09T10:41:31.424Z,98927.03
2023-05-09T10:44:00.678Z,98925.78
2023-05-09T10:46:29.954Z,98924.50
2023-05-09T10:48:59.325Z,98928.94
2023-05-09T10:51:29.089Z,98930.34
2023-05-09T10:53:58.179Z,98924.16
2023-05-09T10:56:32.371Z,98920.22
2023-05-09T10:59:02.179Z,98924.81
2023-05-09T11:01:39.634Z,98924.72
2023-05-09T11:04:14.572Z,98919.53
2023-05-09T11:06:51.235Z,98914.41
2023-05-09T11:09:35.553Z,98908.53
2023-05-09T11:12:04.589Z,98909.25
2023-05-09T11:14:45.890Z,98904.94
2023-05-09T11:17:28.386Z,98898.63
2023-05-09T11:20:03.800Z,98902.72
2023-05-09T11:22:42.724Z,98895.13
2023-05-09T11:25:13.922Z,98892.84
2023-05-09T11:27:43.507Z,98892.69
2023-05-09T11:30:17.822Z,98891.66
2023-05-09T11:32:51.859Z,98878.44
2023-05-09T11:35:22.854Z,98882.75
2023-05-09T11:37:55.167Z,98883.78
2023-05-09T11:40:24.471Z,98875.09
2023-05-09T11:42:57.795Z,98870.03
2023-05-09T11:45:32.605Z,98870.28
2023-05-09T11:48:02.199Z,98867.28
2023-05-09T11:50:31.423Z,98858.66
2023-05-09T11:53:00.504Z,98860.91
2023-05-09T11:55:32.783Z,98855.44
2023-05-09T11:58:01.956Z,98859.69
2023-05-09T12:00:31.902Z,98863.16
2023-05-09T12:03:01.142Z,98859.06
2023-05-09T12:05:30.656Z,98860.56
2023-05-09T12:08:04.658Z,98853.28
2023-05-09T12:10:37.668Z,98852.69
2023-05-09T12:13:06.830Z,98844.88
2023-05-09T12:15:38.149Z,98849.00
2023-05-09T12:18:08.687Z,98841.56
2023-05-09T12:20:44.715Z,98845.47
2023-05-09T12:23:15.019Z,98845.38
2023-05-09T12:25:55.694Z,98846.59
2023-05-09T12:28:26.406Z,98840.50
2023-05-09T12:30:56.383Z,98836.00
2023-05-09T12:33:26.554Z,98838.19
2023-05-09T12:36:03.569Z,98827.44
2023-05-09T12:38:33.141Z,98824.44
2023-05-09T12:41:13.018Z,98825.72
2023-05-09T12:43:52.543Z,98835.38
2023-05-09T12:46:22.081Z,98839.69
2023-05-09T12:48:51.798Z,98825.66
2023-05-09T12:51:22.007Z,98826.78
2023-05-09T12:53:51.200Z,98824.47
2023-05-09T12:56:22.965Z,98806.97
2023-05-09T12:58:53.832Z,98807.31
2023-05-09T13:01:31.863Z,98802.06
2023-05-09T13:04:05.938Z,98797.81
2023-05-09T13:06:36.342Z,98786.38
2023-05-09T13:09:09.473Z,98782.41
2023-05-09T13:11:38.513Z,98773.63
2023-05-09T13:14:08.452Z,98782.38
2023-05-09T13:16:37.730Z,98789.81
2023-05-09T13:19:07.294Z,98782.81
2023-05-09T13:21:37.030Z,98775.09
2023-05-09T13:24:06.492Z,98763.94
2023-05-09T13:26:35.565Z,98745.47
2023-05-09T13:29:04.650Z,98736.31
2023-05-09T13:31:33.790Z,98737.47
2023-05-09T13:34:02.921Z,98734.09
2023-05-09T13:36:32.600Z,98736.41
2023-05-09T13:39:01.640Z,98742.59
2023-05-09T13:41:32.183Z,98743.25
2023-05-09T13:44:01.298Z,98740.50
2023-05-09T13:46:30.484Z,98739.97
2023-05-09T13:48:59.533Z,98745.78
2023-05-09T13:51:29.176Z,98747.69
2023-05-09T13:53:58.236Z,98752.91
2023-05-09T13:56:27.421Z,98751.31
2023-05-09T13:58:56.489Z,98745.81
2023-05-09T14:01:25.620Z,98740.50
2023-05-09T14:03:54.789Z,98748.38
2023-05-09T14:06:23.954Z,98741.44
2023-05-09T14:08:53.144Z,98736.63
2023-05-09T14:11:22.561Z,98735.09
2023-05-09T14:13:54.505Z,98736.75
2023-05-09T14:16:23.559Z,98733.03
2023-05-09T14:18:52.652Z,98732.31
2023-05-09T14:21:22.360Z,98736.25
2023-05-09T14:23:51.610Z,98729.09
2023-05-09T14:26:20.762Z,98727.81
2023-05-09T14:28:49.839Z,98724.53
2023-05-09T14:31:19.291Z,98723.09
2023-05-09T14:33:48.372Z,98720.22
2023-05-09T14:36:17.579Z,98716.34
2023-05-09T14:38:47.004Z,98724.41
2023-05-09T14:41:16.389Z,98711.94
2023-05-09T14:43:45.759Z,98711.69
2023-05-09T14:46:15.110Z,98711.44
2023-05-09T14:48:44.297Z,98705.03
2023-05-09T14:51:14.350Z,98709.28
2023-05-09T14:53:43.676Z,98710.34
2023-05-09T14:56:13.245Z,98706.94
2023-05-09T14:58:42.265Z,98708.03
2023-05-09T15:01:11.419Z,98700.00
2023-05-09T15:03:40.964Z,98707.63
2023-05-09T15:06:10.057Z,98697.22
2023-05-09T15:08:39.324Z,98700.38
2023-05-09T15:11:08.352Z,98698.28
2023-05-09T15:13:37.522Z,98700.41
2023-05-09T15:16:06.767Z,98691.28
2023-05-09T15:18:36.237Z,98691.50
2023-05-09T15:21:05.557Z,98688.63
2023-05-09T15:23:34.681Z,98686.59
2023-05-09T15:26:03.967Z,98686.03
2023-05-09T15:28:33.886Z,98688.75
2023-05-09T15:31:03.553Z,98682.59
2023-05-09T15:33:32.967Z,98692.28
2023-05-09T15:36:02.137Z,98692.13
2023-05-09T15:38:31.266Z,98680.06
2023-05-09T15:41:00.362Z,98673.69
2023-05-09T15:43:29.444Z,98676.50
2023-05-09T15:45:58.560Z,98671.78
2023-05-09T15:48:27.852Z,98667.22
2023-05-09T15:50:56.901Z,98673.50
2023-05-09T15:53:27.629Z,98667.72
2023-05-09T15:55:57.118Z,98672.13
2023-05-09T15:58:26.211Z,98669.38
2023-05-09T16:00:56.914Z,98667.19
2023-05-09T16:03:26.458Z,98663.16
2023-05-09T16:05:55.731Z,98649.19
2023-05-09T16:08:24.869Z,98658.91
2023-05-09T16:10:54.129Z,98645.56
2023-05-09T16:13:23.858Z,98649.44
2023-05-09T16:15:53.952Z,98652.31
2023-05-09T16:18:23.164Z,98662.25
2023-05-09T16:20:52.295Z,98653.97
2023-05-09T16:23:21.662Z,98654.44
2023-05-09T16:25:51.089Z,98648.53
2023-05-09T16:28:23.521Z,98654.00
2023-05-09T16:30:52.978Z,98655.28
2023-05-09T16:33:22.037Z,98651.59
2023-05-09T16:35:51.427Z,98652.22
2023-05-09T16:38:20.658Z,98649.00
2023-05-09T16:40:51.050Z,98639.22
2023-05-09T16:43:20.253Z,98643.97
2023-05-09T16:45:49.396Z,98643.75
2023-05-09T16:48:18.906Z,98640.00
2023-05-09T16:50:48.294Z,98634.97
2023-05-09T16:53:18.953Z,98635.66
2023-05-09T16:55:48.087Z,98639.72
2023-05-09T16:58:17.163Z,98643.19
2023-05-09T17:00:46.277Z,98653.44
2023-05-09T17:03:15.436Z,98644.59
2023-05-09T17:05:44.496Z,98640.81
2023-05-09T17:08:13.623Z,98635.41
2023-05-09T17:10:42.661Z,98628.34
2023-05-09T17:13:11.904Z,98633.59
2023-05-09T17:15:41.174Z,98632.53
2023-05-09T17:18:10.401Z,98639.38
2023-05-09T17:20:39.628Z,98641.09
2023-05-09T17:23:08.752Z,98638.09
2023-05-09T17:25:37.879Z,98641.69
2023-05-09T17:28:07.782Z,98637.63
2023-05-09T17:30:36.986Z,98633.81
2023-05-09T17:33:06.089Z,98635.13
2023-05-09T17:35:36.281Z,98635.66
2023-05-09T17:38:05.363Z,98638.00
2023-05-09T17:40:34.409Z,98646.56
2023-05-09T17:43:03.526Z,98643.47
2023-05-09T17:45:32.531Z,98641.00
2023-05-09T17:48:02.450Z,98642.13
2023-05-09T17:50:31.661Z,98646.84
2023-05-09T17:53:00.747Z,98641.84
2023-05-09T17:55:30.375Z,98633.31
2023-05-09T17:57:59.441Z,98640.22
2023-05-09T18:00:29.311Z,98644.34
2023-05-09T18:03:00.719Z,98639.19
2023-05-09T18:05:30.129Z,98644.53
2023-05-09T18:08:01.243Z,98634.13
2023-05-09T18:10:30.661Z,98642.69
2023-05-09T18:12:59.770Z,98648.59
2023-05-09T18:15:28.889Z,98639.75
2023-05-09T18:17:59.385Z,98650.47
2023-05-09T18:20:28.855Z,98646.47
2023-05-09T18:22:57.955Z,98651.38
2023-05-09T18:25:27.161Z,98653.81
2023-05-09T18:27:56.702Z,98650.41
2023-05-09T18:30:25.970Z,98656.03
2023-05-09T18:33:00.454Z,98654.47
2023-05-09T18:35:30.223Z,98658.53
2023-05-09T18:37:59.847Z,98661.38
2023-05-09T18:40:29.018Z,98657.75
2023-05-09T18:42:58.144Z,98653.34
2023-05-09T18:45:27.209Z,98651.13
2023-05-09T18:47:56.582Z,98658.78
2023-05-09T18:50:26.008Z,98657.56
2023-05-09T18:52:55.391Z,98660.81
2023-05-09T18:55:24.889Z,98660.41
2023-05-09T18:57:54.417Z,98669.66
2023-05-09T19:00:23.884Z,98666.19
2023-05-09T19:02:52.992Z,98663.16
2023-05-09T19:05:22.261Z,98671.19
2023-05-09T19:07:51.870Z,98676.59
2023-05-09T19:10:24.152Z,98676.78
2023-05-09T19:12:54.030Z,98675.59
2023-05-09T19:15:23.885Z,98673.72
2023-05-09T19:17:58.550Z,98668.91
2023-05-09T19:20:29.623Z,98676.75
2023-05-09T19:22:59.382Z,98674.09
2023-05-09T19:25:33.830Z,98667.03
2023-05-09T19:28:03.475Z,98672.25
2023-05-09T19:30:33.942Z,98667.41
2023-05-09T19:33:03.557Z,98672.19
2023-05-09T19:35:33.815Z,98673.78
2023-05-09T19:38:05.697Z,98680.59
2023-05-09T19:40:35.130Z,98675.13
2023-05-09T19:43:05.248Z,98685.38
2023-05-09T19:45:35.461Z,98675.88
2023-05-09T19:48:05.925Z,98685.72
2023-05-09T19:50:45.954Z,98692.53
2023-05-09T19:53:15.741Z,98685.44
2023-05-09T19:55:47.443Z,98679.75
2023-05-09T19:58:17.797Z,98672.28
2023-05-09T20:00:48.300Z,98683.28
2023-05-09T20:03:17.585Z,98681.44
2023-05-09T20:08:33.950Z,98693.00
2023-05-09T20:11:03.293Z,98687.91
2023-05-09T20:13:32.495Z,98688.88
2023-05-09T20:16:03.190Z,98692.59
2023-05-09T20:18:34.879Z,98687.50
2023-05-09T20:21:07.296Z,98695.81
2023-05-09T20:23:37.055Z,98686.16
2023-05-09T20:26:06.565Z,98691.31
2023-05-09T20:28:35.721Z,98695.19
2023-05-09T20:31:04.829Z,98694.16
2023-05-09T20:33:34.164Z,98697.03
2023-05-09T20:36:05.096Z,98692.94
2023-05-09T20:38:34.439Z,98692.47
2023-05-09T20:41:04.050Z,98687.81
2023-05-09T20:43:33.509Z,98694.38
2023-05-09T20:46:02.735Z,98691.88
2023-05-09T20:48:32.489Z,98697.44
2023-05-09T20:51:01.575Z,98688.13
2023-05-09T20:53:32.470Z,98699.25
2023-05-09T20:56:02.132Z,98692.19
2023-05-09T20:58:32.887Z,98683.81
2023-05-09T21:01:02.317Z,98687.66
2023-05-09T21:03:31.474Z,98688.22
2023-05-09T21:06:00.754Z,98684.34
2023-05-09T21:08:29.779Z,98682.13
2023-05-09T21:10:58.880Z,98678.06
2023-05-09T21:13:28.390Z,98671.97
2023-05-09T21:15:57.645Z,98668.59
2023-05-09T21:18:27.461Z,98676.50
2023-05-09T21:20:56.519Z,98680.41
2023-05-09T21:23:25.595Z,98682.56
2023-05-09T21:25:54.611Z,98680.97
2023-05-09T21:28:23.671Z,98672.50
2023-05-09T21:30:53.867Z,98674.56
2023-05-09T21:33:23.121Z,98671.28
2023-05-09T21:35:52.073Z,98675.03
2023-05-09T21:38:21.195Z,98668.38
2023-05-09T21:40:51.462Z,98676.50
2023-05-09T21:43:20.647Z,98677.81
2023-05-09T21:45:49.647Z,98664.88
2023-05-09T21:48:18.700Z,98668.84
2023-05-09T21:50:47.945Z,98671.59
2023-05-09T21:53:16.986Z,98672.13
2023-05-09T21:55:46.294Z,98664.69
2023-05-09T21:58:15.352Z,98671.50
2023-05-09T22:00:44.460Z,98673.72
2023-05-09T22:03:13.608Z,98667.22
2023-05-09T22:05:43.177Z,98673.31
2023-05-09T22:08:12.228Z,98673.59
2023-05-09T22:10:41.310Z,98673.41
2023-05-09T22:13:10.473Z,98675.84
2023-05-09T22:15:39.594Z,98669.03
2023-05-09T22:18:08.830Z,98664.16
2023-05-09T22:20:37.854Z,98670.38
2023-05-09T22:23:06.985Z,98661.13
2023-05-09T22:25:36.061Z,98673.16
2023-05-09T22:28:05.200Z,98670.06
2023-05-09T22:30:34.916Z,98672.50
2023-05-09T22:33:04.069Z,98666.50
2023-05-09T22:35:33.144Z,98664.88
2023-05-09T22:38:02.154Z,98669.38
2023-05-09T22:40:31.195Z,98660.88
2023-05-09T22:43:00.238Z,98656.31
2023-05-09T22:45:29.485Z,98662.13
2023-05-09T22:47:58.567Z,98649.47
2023-05-09T22:50:27.801Z,98656.31
2023-05-09T22:52:56.887Z,98653.06
2023-05-09T22:55:26.020Z,98651.09
2023-05-09T22:57:55.100Z,98657.19
2023-05-09T23:00:24.166Z,98645.16
2023-05-09T23:02:53.301Z,98651.00
2023-05-09T23:05:23.488Z,98645.00
2023-05-09T23:07:52.549Z,98643.19
2023-05-09T23:10:21.652Z,98640.59
2023-05-09T23:12:50.745Z,98631.50
2023-05-09T23:15:20.008Z,98631.50
2023-05-09T23:17:49.109Z,98634.66
2023-05-09T23:20:18.557Z,98636.47
2023-05-09T23:22:47.789Z,98634.28
2023-05-09T23:25:16.851Z,98637.59
2023-05-09T23:27:46.975Z,98628.69
2023-05-09T23:30:16.473Z,98631.13
2023-05-09T23:32:46.070Z,98624.94
2023-05-09T23:35:15.516Z,98628.44
2023-05-09T23:37:44.540Z,98628.03
2023-05-09T23:40:14.236Z,98626.94
2023-05-09T23:42:43.476Z,98616.00
2023-05-09T23:45:12.903Z,98611.28
2023-05-09T23:47:41.984Z,98609.91
2023-05-09T23:50:12.168Z,98609.72
2023-05-09T23:52:42.092Z,98608.03
2023-05-09T23:55:11.592Z,98620.13
2023-05-09T23:57:40.702Z,98618.41
